Darwin, Australia
Current Conditions -  °F | °C
As of 7:30 PM on Thursday 27 Nov 2014 (Local Time) from YPDN Reporting Station
Broken Clouds Broken Clouds  
Wind Chill: 86°   Ceiling: 35000
Heat Index: 93°   Visibility: 6mi
Dew Point: 73°   Wind: 10mph
Humidity: 66%   Direction: 350°N
Pressure: 29.74"   Gusts: NA
Location:  12.46°S, 130.84°E
Report Text: YPDN 271030Z 35009KT 9999 FEW020 BKN350 30/23 Q1007
Loading
Personal Weather Stations






























Interactive Weather Map New forecast layout! Learn more

10-Day Weather Forecast

Advertisements
Track Severe Weather on mobile